Buoy 56916

sailwx.info

Track history (hours):
 
Tides and Currents Weather Stations Pressure Air Temp Water Temp Dewpoint Dewpoint Depression Visibility Wind Speed Wind Dir Waves Ship Positions

Drifting buoy 56916

Last reported at 2017-Feb-24 04:00 UTC. Time now 2017-Feb-24 06:09 UTC.
Position S 49°42' E 160°40'.

Barometer 1012.7 mb
Water temperature 10.9 ° C

Date/timePositionNaut miles runAvg speedWind from/ knotsBaromVisibWave heightAir tempDewpointWater temp
2017-Feb-24 04:00S 49°42' E 160°40'0 0.4 1012.7 10.9
2017-Feb-24 03:00S 49°42' E 160°39'1 0.1 1013.0 10.8
2017-Feb-23 23:00S 49°43' E 160°39'1 0.5 1013.6 10.7
2017-Feb-23 21:00S 49°43' E 160°38'0 0.4 1013.3 10.7
2017-Feb-23 20:00S 49°43' E 160°37'0 0.4 1013.0 10.7
2017-Feb-23 19:00S 49°43' E 160°38'1 1.3 1012.7 10.7
2017-Feb-23 18:00S 49°44' E 160°36'1 0.4 1012.0 10.7
2017-Feb-23 16:00S 49°44' E 160°35'1 0.8 1011.6 10.7
2017-Feb-23 15:00S 49°44' E 160°34'1 0.6 1011.8 10.7
2017-Feb-23 14:00S 49°44' E 160°34'1 0.4 1012.2 10.7
2017-Feb-23 11:00S 49°44' E 160°32'0 0.0 1013.9 10.7
2017-Feb-23 10:00S 49°44' E 160°32'0 0.4 1014.2 10.7
2017-Feb-23 09:00S 49°44' E 160°32'0 0.4 1014.6 10.7
2017-Feb-23 08:00S 49°44' E 160°31'2 1.2 1015.2 10.7
2017-Feb-23 06:00S 49°45' E 160°28'0 0.0 1016.5 10.8
2017-Feb-23 05:00S 49°45' E 160°28'1 0.7 1017.4 10.8
2017-Feb-23 04:00S 49°44' E 160°28'2 0.4 1017.7 10.8
2017-Feb-22 23:00S 49°44' E 160°25'1 0.6 1020.2 10.6
2017-Feb-22 22:00S 49°44' E 160°25'1 0.7 1020.3 10.6
2017-Feb-22 21:00S 49°44' E 160°26'1 0.7 1020.1 10.6
2017-Feb-22 20:00S 49°45' E 160°25'0 0.0 1020.2 10.6
2017-Feb-22 19:00S 49°45' E 160°25'1 0.7 1019.6 10.6
2017-Feb-22 18:00S 49°46' E 160°25'1 0.5 1019.5 10.6
2017-Feb-22 16:00S 49°46' E 160°23'1 1.3 1019.0 10.6
2017-Feb-22 15:00S 49°47' E 160°22'0 0.0 1018.8 10.6
2017-Feb-22 14:00S 49°47' E 160°22'1 0.5 1018.9 10.6
2017-Feb-22 12:00S 49°46' E 160°20'1 0.8 1018.6 10.6
2017-Feb-22 11:00S 49°46' E 160°19'0 0.4 1018.3 10.6
2017-Feb-22 10:00S 49°46' E 160°20'0 0.0 1018.2 10.6
2017-Feb-22 08:00S 49°46' E 160°20'1 0.4 1016.0 10.6
2017-Feb-22 05:00S 49°47' E 160°20'0 0.4 1013.9 10.6
2017-Feb-22 04:00S 49°47' E 160°19'3 0.7 1012.7 10.6
2017-Feb-21 23:00S 49°49' E 160°15'1 0.7 1006.6 10.5
2017-Feb-21 22:00S 49°50' E 160°16'1 0.4 1004.8 10.5
2017-Feb-21 20:00S 49°50' E 160°14'0 0.0 1002.1 10.5
2017-Feb-21 19:00S 49°50' E 160°14'2 1.7 1000.7 10.5
2017-Feb-21 18:00S 49°50' E 160°12'0 0.0 999.8 10.5
2017-Feb-21 17:00S 49°50' E 160°12'0 0.0 998.9 10.5
2017-Feb-21 16:00S 49°50' E 160°12'1 0.7 998.0 10.5
2017-Feb-21 15:00S 49°51' E 160°11'0 0.0 997.4 10.5
2017-Feb-21 14:00S 49°51' E 160°11'1 1.3 997.1 10.5
2017-Feb-21 13:00S 49°52' E 160°10'1 0.8 997.2 10.5
2017-Feb-21 12:00S 49°52' E 160°08'0 0.0 997.3 10.5
2017-Feb-21 10:00S 49°52' E 160°08'0 0.2 998.3 10.5
2017-Feb-21 08:00S 49°52' E 160°08'2 1.5 998.4 10.5
2017-Feb-21 07:00S 49°52' E 160°05'1 1.2 998.1 10.5
2017-Feb-21 06:00S 49°52' E 160°04'1 1.0 998.2 10.5
2017-Feb-21 05:00S 49°51' E 160°02'1 0.7 998.3 10.5
2017-Feb-21 04:00S 49°50' E 160°02'0 0.0 998.2 10.6
2017-Feb-21 03:00S 49°50' E 160°02'3 0.5 998.0 10.6
2017-Feb-20 22:00S 49°50' E 159°58'0 0.0 998.9 10.5
2017-Feb-20 21:00S 49°50' E 159°58'0 0.4 999.7 10.5
2017-Feb-20 20:00S 49°50' E 159°57'1 1.4 1000.3 10.5
2017-Feb-20 19:00S 49°49' E 159°56'0 0.0 1000.7 10.5
2017-Feb-20 18:00S 49°49' E 159°56'1 0.7 1001.3 10.5
2017-Feb-20 17:00S 49°49' E 159°55'0 0.0 1001.5 10.5
2017-Feb-20 16:00S 49°49' E 159°55'1 0.6 1002.3 10.5
2017-Feb-20 14:00S 49°49' E 159°53'1 0.2 1004.8 10.6
2017-Feb-20 11:00S 49°48' E 159°53'1 0.7 1008.7 10.6
2017-Feb-20 10:00S 49°49' E 159°53'2 0.7 1009.2 10.6
2017-Feb-20 07:00S 49°47' E 159°52'2 1.5 1010.9 10.6
2017-Feb-20 06:00S 49°47' E 159°49'1 0.6 1011.9 10.7
2017-Feb-20 05:00S 49°46' E 159°49'0 0.0 1013.3 10.7
2017-Feb-20 04:00S 49°46' E 159°49'0 0.0 1013.0 10.7
2017-Feb-20 03:00S 49°46' E 159°49'1 0.2 1013.1 10.7
2017-Feb-19 23:00S 49°46' E 159°49'1 0.7 1015.8 10.6
2017-Feb-19 22:00S 49°46' E 159°48'0 0.0 1015.8 10.6
2017-Feb-19 21:00S 49°46' E 159°48'1 1.2 1015.9 10.6
2017-Feb-19 20:00S 49°46' E 159°46'0 0.0 1015.9 10.6
2017-Feb-19 19:00S 49°46' E 159°46'0 0.4 1015.6 10.6
2017-Feb-19 18:00S 49°46' E 159°47'1 1.3 1016.2 10.6
2017-Feb-19 17:00S 49°47' E 159°45'1 0.6 1016.0 10.6
2017-Feb-19 16:00S 49°46' E 159°45'1 1.3 1015.6 10.6
2017-Feb-19 15:00S 49°46' E 159°43'0 0.0 1015.8 10.6
2017-Feb-19 14:00S 49°46' E 159°43'0 0.0 1015.6 10.6
2017-Feb-19 13:00S 49°46' E 159°43'1 0.7 1016.1 10.6
2017-Feb-19 12:00S 49°46' E 159°43'1 0.8 1015.4 10.6
2017-Feb-19 11:00S 49°46' E 159°44'0 0.0 1015.4 10.6
2017-Feb-19 10:00S 49°46' E 159°44'0 0.0 1014.4 10.7
2017-Feb-19 09:00S 49°46' E 159°44'1 1.0 1014.1 10.7
2017-Feb-19 08:00S 49°47' E 159°43'0 0.0 1013.7 10.7
2017-Feb-19 07:00S 49°47' E 159°43'2 1.9 1012.6 10.7
2017-Feb-19 06:00S 49°47' E 159°40'0 0.0 1012.6 10.8
2017-Feb-19 05:00S 49°47' E 159°40'0 0.0 1012.7 10.8
2017-Feb-19 04:00S 49°47' E 159°40'0 0.0 1012.7 10.8
2017-Feb-19 03:00S 49°47' E 159°40'1 0.4 1012.5 10.7
2017-Feb-19 00:00S 49°47' E 159°38'0 0.0 1011.5 10.5
2017-Feb-18 23:00S 49°47' E 159°38'1 0.3 1012.5 10.5
2017-Feb-18 21:00S 49°47' E 159°38'0 0.0 1011.7 10.5
2017-Feb-18 20:00S 49°47' E 159°38'2 1.5 1011.2 10.5
2017-Feb-18 19:00S 49°47' E 159°35'0 0.4 1011.1 10.5
2017-Feb-18 18:00S 49°47' E 159°35'1 0.7 1009.6 10.5
2017-Feb-18 17:00S 49°46' E 159°35'0 0.4 1009.0 10.5
2017-Feb-18 16:00S 49°46' E 159°35'0 0.0 1009.3 10.5
2017-Feb-18 15:00S 49°46' E 159°35'1 1.0 1009.0 10.5
2017-Feb-18 14:00S 49°47' E 159°36'2 0.7 1009.3 10.5
2017-Feb-18 11:00S 49°48' E 159°34'1 0.8 1009.3 10.5
2017-Feb-18 10:00S 49°48' E 159°32'0 0.4 1009.3 10.5
2017-Feb-18 09:00S 49°48' E 159°32'1 1.2 1008.8 10.5
2017-Feb-18 08:00S 49°48' E 159°30'1 0.7 1008.1 10.5
2017-Feb-18 07:00S 49°47' E 159°29'1 0.7 1007.7 10.5
2017-Feb-18 06:00S 49°47' E 159°29'0 0.0 1007.3 10.5
2017-Feb-18 05:00S 49°47' E 159°29'1 0.3 1007.3 10.5
2017-Feb-18 03:00S 49°47' E 159°29'0 0.0 1007.3 10.5
2017-Feb-17 23:00S 49°47' E 159°29'1 1.2 1007.2 10.4
2017-Feb-17 22:00S 49°47' E 159°27'0 0.0 1007.2 10.4
2017-Feb-17 21:00S 49°47' E 159°27'2 1.0 1006.7 10.4
2017-Feb-17 19:00S 49°47' E 159°24'0 0.0 1006.4 10.4
2017-Feb-17 18:00S 49°47' E 159°24'0 0.4 1006.0 10.4
2017-Feb-17 17:00S 49°47' E 159°23'1 1.3 1005.2 10.4
2017-Feb-17 16:00S 49°47' E 159°22'0 0.0 1004.9 10.4
2017-Feb-17 15:00S 49°47' E 159°22'1 0.7 1004.5 10.4
2017-Feb-17 14:00S 49°46' E 159°21'0 0.0 1004.2 10.4
2017-Feb-17 13:00S 49°46' E 159°21'0 0.0 1004.6 10.4
2017-Feb-17 12:00S 49°46' E 159°21'1 1.0 1004.8 9.3
2017-Feb-17 11:00S 49°47' E 159°20'0 0.0 1005.0 10.3
2017-Feb-17 10:00S 49°47' E 159°20'1 1.2 1004.6 10.3
2017-Feb-17 09:00S 49°47' E 159°18'1 0.4 1004.0 10.3
2017-Feb-17 07:00S 49°47' E 159°17'0 0.0 1004.2 10.3
2017-Feb-17 06:00S 49°47' E 159°17'2 1.0 1004.3 10.3
2017-Feb-17 04:00S 49°46' E 159°14'1 0.7 1003.9 10.3
2017-Feb-17 03:00S 49°47' E 159°14'3 0.7 1004.4 10.3
2017-Feb-16 23:00S 49°46' E 159°11'1 1.0 1006.5 10.3
2017-Feb-16 22:00S 49°46' E 159°10'1 1.3 1007.7 10.3
2017-Feb-16 21:00S 49°45' E 159°10'0 0.4 1008.8 10.3
2017-Feb-16 20:00S 49°45' E 159°10'1 1.0 1009.4 10.3
2017-Feb-16 19:00S 49°44' E 159°08'1 0.7 1009.9 10.3
2017-Feb-16 18:00S 49°45' E 159°08'1 0.6 1009.7 10.3
2017-Feb-16 17:00S 49°46' E 159°08'2 0.8 1010.1 10.3
2017-Feb-16 15:00S 49°45' E 159°05'0 0.0 1010.3 10.3
2017-Feb-16 14:00S 49°45' E 159°05'0 0.0 1010.3 10.3
2017-Feb-16 13:00S 49°45' E 159°05'0 0.0 1010.2 10.3
2017-Feb-16 12:00S 49°45' E 159°05'2 0.8 1010.2 10.3
2017-Feb-16 10:00S 49°45' E 159°03'2 1.6 1009.8 10.3
2017-Feb-16 09:00S 49°45' E 159°01'0 0.4 1008.4 10.3
2017-Feb-16 08:00S 49°45' E 159°00'1 0.4 1007.7 10.3
2017-Feb-16 06:00S 49°44' E 158°59'1 0.8 1006.3 10.4
2017-Feb-16 05:00S 49°44' E 158°58'0 0.4 1005.4 10.4
2017-Feb-16 04:00S 49°44' E 158°59'0 0.0 1004.8 10.4
2017-Feb-16 03:00S 49°44' E 158°59'4 0.9 1004.1 10.3
2017-Feb-15 22:00S 49°46' E 158°52'1 0.5 1001.5 10.2
2017-Feb-15 20:00S 49°45' E 158°51'0 0.0 1000.8 10.1
2017-Feb-15 19:00S 49°45' E 158°51'0 0.4 1000.9 10.2
2017-Feb-15 18:00S 49°45' E 158°50'3 1.1 1002.1 10.2
2017-Feb-15 15:00S 49°44' E 158°46'0 0.0 1005.9 10.3
2017-Feb-15 14:00S 49°44' E 158°46'1 0.5 1006.5 10.3
2017-Feb-15 12:00S 49°44' E 158°44'1 0.7 1007.9 10.3
2017-Feb-15 11:00S 49°43' E 158°44'1 1.2 1008.6 10.3
2017-Feb-15 10:00S 49°43' E 158°42'0 0.2 1009.0 10.4
2017-Feb-15 08:00S 49°43' E 158°41'0 0.0 1008.8 10.4
2017-Feb-15 07:00S 49°43' E 158°41'0 0.0 1009.2 10.4
2017-Feb-15 06:00S 49°43' E 158°41'1 0.8 1009.5 10.4
2017-Feb-15 05:00S 49°43' E 158°40'1 1.0 1009.7 10.4
2017-Feb-15 04:00S 49°44' E 158°39'1 0.8 1009.5 10.4
2017-Feb-15 03:00S 49°44' E 158°38'2 0.5 1009.5 10.4
2017-Feb-14 23:00S 49°43' E 158°35'1 0.8 1009.1 10.3
2017-Feb-14 22:00S 49°43' E 158°34'0 0.0 1008.8 10.2
2017-Feb-14 21:00S 49°43' E 158°34'0 0.4 1008.1 10.2
2017-Feb-14 20:00S 49°43' E 158°33'1 1.0 1007.1 10.2
2017-Feb-14 19:00S 49°44' E 158°32'0 0.0 1006.1 10.2
2017-Feb-14 18:00S 49°44' E 158°32'0 0.0 1005.5 10.2
2017-Feb-14 16:00S 49°44' E 158°32'0 0.4 1004.5 10.2
2017-Feb-14 15:00S 49°44' E 158°31'0 0.0 1004.0 10.2
2017-Feb-14 14:00S 49°44' E 158°31'2 1.7 1003.7 10.2
2017-Feb-14 13:00S 49°45' E 158°29'0 0.0 1003.3 10.2
2017-Feb-14 12:00S 49°45' E 158°29'1 1.0 1002.9 10.2
2017-Feb-14 11:00S 49°46' E 158°28'1 0.6 1002.4 10.2
2017-Feb-14 09:00S 49°46' E 158°26'1 0.8 1001.2 10.3
2017-Feb-14 08:00S 49°46' E 158°25'1 1.3 1000.8 10.3
2017-Feb-14 07:00S 49°45' E 158°23'0 0.0 1000.2 10.3
2017-Feb-14 06:00S 49°45' E 158°23'0 0.0 999.9 10.3
2017-Feb-14 05:00S 49°45' E 158°23'0 0.0 999.6 10.3
2017-Feb-14 04:00S 49°45' E 158°23'   999.0 10.3
Track history (hours):
 
Tides and Currents Weather Stations Pressure Air Temp Water Temp Dewpoint Dewpoint Depression Visibility Wind Speed Wind Dir Waves Ship Positions

Drifting buoy 56916

Last reported at 2017-Feb-24 04:00 UTC. Time now 2017-Feb-24 06:09 UTC.
Position S 49°42' E 160°40'.

Barometer 1012.7 mb
Water temperature 10.9 ° C

Date/timePositionNaut miles runAvg speedWind from/ knotsBaromVisibWave heightAir tempDewpointWater temp
2017-Feb-24 04:00S 49°42' E 160°40'0 0.4 1012.7 10.9
2017-Feb-24 03:00S 49°42' E 160°39'1 0.1 1013.0 10.8
2017-Feb-23 23:00S 49°43' E 160°39'1 0.5 1013.6 10.7
2017-Feb-23 21:00S 49°43' E 160°38'0 0.4 1013.3 10.7
2017-Feb-23 20:00S 49°43' E 160°37'0 0.4 1013.0 10.7
2017-Feb-23 19:00S 49°43' E 160°38'1 1.3 1012.7 10.7
2017-Feb-23 18:00S 49°44' E 160°36'1 0.4 1012.0 10.7
2017-Feb-23 16:00S 49°44' E 160°35'1 0.8 1011.6 10.7
2017-Feb-23 15:00S 49°44' E 160°34'1 0.6 1011.8 10.7
2017-Feb-23 14:00S 49°44' E 160°34'1 0.4 1012.2 10.7
2017-Feb-23 11:00S 49°44' E 160°32'0 0.0 1013.9 10.7
2017-Feb-23 10:00S 49°44' E 160°32'0 0.4 1014.2 10.7
2017-Feb-23 09:00S 49°44' E 160°32'0 0.4 1014.6 10.7
2017-Feb-23 08:00S 49°44' E 160°31'2 1.2 1015.2 10.7
2017-Feb-23 06:00S 49°45' E 160°28'0 0.0 1016.5 10.8
2017-Feb-23 05:00S 49°45' E 160°28'1 0.7 1017.4 10.8
2017-Feb-23 04:00S 49°44' E 160°28'2 0.4 1017.7 10.8
2017-Feb-22 23:00S 49°44' E 160°25'1 0.6 1020.2 10.6
2017-Feb-22 22:00S 49°44' E 160°25'1 0.7 1020.3 10.6
2017-Feb-22 21:00S 49°44' E 160°26'1 0.7 1020.1 10.6
2017-Feb-22 20:00S 49°45' E 160°25'0 0.0 1020.2 10.6
2017-Feb-22 19:00S 49°45' E 160°25'1 0.7 1019.6 10.6
2017-Feb-22 18:00S 49°46' E 160°25'1 0.5 1019.5 10.6
2017-Feb-22 16:00S 49°46' E 160°23'1 1.3 1019.0 10.6
2017-Feb-22 15:00S 49°47' E 160°22'0 0.0 1018.8 10.6
2017-Feb-22 14:00S 49°47' E 160°22'1 0.5 1018.9 10.6
2017-Feb-22 12:00S 49°46' E 160°20'1 0.8 1018.6 10.6
2017-Feb-22 11:00S 49°46' E 160°19'0 0.4 1018.3 10.6
2017-Feb-22 10:00S 49°46' E 160°20'0 0.0 1018.2 10.6
2017-Feb-22 08:00S 49°46' E 160°20'1 0.4 1016.0 10.6
2017-Feb-22 05:00S 49°47' E 160°20'0 0.4 1013.9 10.6
2017-Feb-22 04:00S 49°47' E 160°19'3 0.7 1012.7 10.6
2017-Feb-21 23:00S 49°49' E 160°15'1 0.7 1006.6 10.5
2017-Feb-21 22:00S 49°50' E 160°16'1 0.4 1004.8 10.5
2017-Feb-21 20:00S 49°50' E 160°14'0 0.0 1002.1 10.5
2017-Feb-21 19:00S 49°50' E 160°14'2 1.7 1000.7 10.5
2017-Feb-21 18:00S 49°50' E 160°12'0 0.0 999.8 10.5
2017-Feb-21 17:00S 49°50' E 160°12'0 0.0 998.9 10.5
2017-Feb-21 16:00S 49°50' E 160°12'1 0.7 998.0 10.5
2017-Feb-21 15:00S 49°51' E 160°11'0 0.0 997.4 10.5
2017-Feb-21 14:00S 49°51' E 160°11'1 1.3 997.1 10.5
2017-Feb-21 13:00S 49°52' E 160°10'1 0.8 997.2 10.5
2017-Feb-21 12:00S 49°52' E 160°08'0 0.0 997.3 10.5
2017-Feb-21 10:00S 49°52' E 160°08'0 0.2 998.3 10.5
2017-Feb-21 08:00S 49°52' E 160°08'2 1.5 998.4 10.5
2017-Feb-21 07:00S 49°52' E 160°05'1 1.2 998.1 10.5
2017-Feb-21 06:00S 49°52' E 160°04'1 1.0 998.2 10.5
2017-Feb-21 05:00S 49°51' E 160°02'1 0.7 998.3 10.5
2017-Feb-21 04:00S 49°50' E 160°02'0 0.0 998.2 10.6
2017-Feb-21 03:00S 49°50' E 160°02'3 0.5 998.0 10.6
2017-Feb-20 22:00S 49°50' E 159°58'0 0.0 998.9 10.5
2017-Feb-20 21:00S 49°50' E 159°58'0 0.4 999.7 10.5
2017-Feb-20 20:00S 49°50' E 159°57'1 1.4 1000.3 10.5
2017-Feb-20 19:00S 49°49' E 159°56'0 0.0 1000.7 10.5
2017-Feb-20 18:00S 49°49' E 159°56'1 0.7 1001.3 10.5
2017-Feb-20 17:00S 49°49' E 159°55'0 0.0 1001.5 10.5
2017-Feb-20 16:00S 49°49' E 159°55'1 0.6 1002.3 10.5
2017-Feb-20 14:00S 49°49' E 159°53'1 0.2 1004.8 10.6
2017-Feb-20 11:00S 49°48' E 159°53'1 0.7 1008.7 10.6
2017-Feb-20 10:00S 49°49' E 159°53'2 0.7 1009.2 10.6
2017-Feb-20 07:00S 49°47' E 159°52'2 1.5 1010.9 10.6
2017-Feb-20 06:00S 49°47' E 159°49'1 0.6 1011.9 10.7
2017-Feb-20 05:00S 49°46' E 159°49'0 0.0 1013.3 10.7
2017-Feb-20 04:00S 49°46' E 159°49'0 0.0 1013.0 10.7
2017-Feb-20 03:00S 49°46' E 159°49'1 0.2 1013.1 10.7
2017-Feb-19 23:00S 49°46' E 159°49'1 0.7 1015.8 10.6
2017-Feb-19 22:00S 49°46' E 159°48'0 0.0 1015.8 10.6
2017-Feb-19 21:00S 49°46' E 159°48'1 1.2 1015.9 10.6
2017-Feb-19 20:00S 49°46' E 159°46'0 0.0 1015.9 10.6
2017-Feb-19 19:00S 49°46' E 159°46'0 0.4 1015.6 10.6
2017-Feb-19 18:00S 49°46' E 159°47'1 1.3 1016.2 10.6
2017-Feb-19 17:00S 49°47' E 159°45'1 0.6 1016.0 10.6
2017-Feb-19 16:00S 49°46' E 159°45'1 1.3 1015.6 10.6
2017-Feb-19 15:00S 49°46' E 159°43'0 0.0 1015.8 10.6
2017-Feb-19 14:00S 49°46' E 159°43'0 0.0 1015.6 10.6
2017-Feb-19 13:00S 49°46' E 159°43'1 0.7 1016.1 10.6
2017-Feb-19 12:00S 49°46' E 159°43'1 0.8 1015.4 10.6
2017-Feb-19 11:00S 49°46' E 159°44'0 0.0 1015.4 10.6
2017-Feb-19 10:00S 49°46' E 159°44'0 0.0 1014.4 10.7
2017-Feb-19 09:00S 49°46' E 159°44'1 1.0 1014.1 10.7
2017-Feb-19 08:00S 49°47' E 159°43'0 0.0 1013.7 10.7
2017-Feb-19 07:00S 49°47' E 159°43'2 1.9 1012.6 10.7
2017-Feb-19 06:00S 49°47' E 159°40'0 0.0 1012.6 10.8
2017-Feb-19 05:00S 49°47' E 159°40'0 0.0 1012.7 10.8
2017-Feb-19 04:00S 49°47' E 159°40'0 0.0 1012.7 10.8
2017-Feb-19 03:00S 49°47' E 159°40'1 0.4 1012.5 10.7
2017-Feb-19 00:00S 49°47' E 159°38'0 0.0 1011.5 10.5
2017-Feb-18 23:00S 49°47' E 159°38'1 0.3 1012.5 10.5
2017-Feb-18 21:00S 49°47' E 159°38'0 0.0 1011.7 10.5
2017-Feb-18 20:00S 49°47' E 159°38'2 1.5 1011.2 10.5
2017-Feb-18 19:00S 49°47' E 159°35'0 0.4 1011.1 10.5
2017-Feb-18 18:00S 49°47' E 159°35'1 0.7 1009.6 10.5
2017-Feb-18 17:00S 49°46' E 159°35'0 0.4 1009.0 10.5
2017-Feb-18 16:00S 49°46' E 159°35'0 0.0 1009.3 10.5
2017-Feb-18 15:00S 49°46' E 159°35'1 1.0 1009.0 10.5
2017-Feb-18 14:00S 49°47' E 159°36'2 0.7 1009.3 10.5
2017-Feb-18 11:00S 49°48' E 159°34'1 0.8 1009.3 10.5
2017-Feb-18 10:00S 49°48' E 159°32'0 0.4 1009.3 10.5
2017-Feb-18 09:00S 49°48' E 159°32'1 1.2 1008.8 10.5
2017-Feb-18 08:00S 49°48' E 159°30'1 0.7 1008.1 10.5
2017-Feb-18 07:00S 49°47' E 159°29'1 0.7 1007.7 10.5
2017-Feb-18 06:00S 49°47' E 159°29'0 0.0 1007.3 10.5
2017-Feb-18 05:00S 49°47' E 159°29'1 0.3 1007.3 10.5
2017-Feb-18 03:00S 49°47' E 159°29'0 0.0 1007.3 10.5
2017-Feb-17 23:00S 49°47' E 159°29'1 1.2 1007.2 10.4
2017-Feb-17 22:00S 49°47' E 159°27'0 0.0 1007.2 10.4
2017-Feb-17 21:00S 49°47' E 159°27'2 1.0 1006.7 10.4
2017-Feb-17 19:00S 49°47' E 159°24'0 0.0 1006.4 10.4
2017-Feb-17 18:00S 49°47' E 159°24'0 0.4 1006.0 10.4
2017-Feb-17 17:00S 49°47' E 159°23'1 1.3 1005.2 10.4
2017-Feb-17 16:00S 49°47' E 159°22'0 0.0 1004.9 10.4
2017-Feb-17 15:00S 49°47' E 159°22'1 0.7 1004.5 10.4
2017-Feb-17 14:00S 49°46' E 159°21'0 0.0 1004.2 10.4
2017-Feb-17 13:00S 49°46' E 159°21'0 0.0 1004.6 10.4
2017-Feb-17 12:00S 49°46' E 159°21'1 1.0 1004.8 9.3
2017-Feb-17 11:00S 49°47' E 159°20'0 0.0 1005.0 10.3
2017-Feb-17 10:00S 49°47' E 159°20'1 1.2 1004.6 10.3
2017-Feb-17 09:00S 49°47' E 159°18'1 0.4 1004.0 10.3
2017-Feb-17 07:00S 49°47' E 159°17'0 0.0 1004.2 10.3
2017-Feb-17 06:00S 49°47' E 159°17'2 1.0 1004.3 10.3
2017-Feb-17 04:00S 49°46' E 159°14'1 0.7 1003.9 10.3
2017-Feb-17 03:00S 49°47' E 159°14'3 0.7 1004.4 10.3
2017-Feb-16 23:00S 49°46' E 159°11'1 1.0 1006.5 10.3
2017-Feb-16 22:00S 49°46' E 159°10'1 1.3 1007.7 10.3
2017-Feb-16 21:00S 49°45' E 159°10'0 0.4 1008.8 10.3
2017-Feb-16 20:00S 49°45' E 159°10'1 1.0 1009.4 10.3
2017-Feb-16 19:00S 49°44' E 159°08'1 0.7 1009.9 10.3
2017-Feb-16 18:00S 49°45' E 159°08'1 0.6 1009.7 10.3
2017-Feb-16 17:00S 49°46' E 159°08'2 0.8 1010.1 10.3
2017-Feb-16 15:00S 49°45' E 159°05'0 0.0 1010.3 10.3
2017-Feb-16 14:00S 49°45' E 159°05'0 0.0 1010.3 10.3
2017-Feb-16 13:00S 49°45' E 159°05'0 0.0 1010.2 10.3
2017-Feb-16 12:00S 49°45' E 159°05'2 0.8 1010.2 10.3
2017-Feb-16 10:00S 49°45' E 159°03'2 1.6 1009.8 10.3
2017-Feb-16 09:00S 49°45' E 159°01'0 0.4 1008.4 10.3
2017-Feb-16 08:00S 49°45' E 159°00'1 0.4 1007.7 10.3
2017-Feb-16 06:00S 49°44' E 158°59'1 0.8 1006.3 10.4
2017-Feb-16 05:00S 49°44' E 158°58'0 0.4 1005.4 10.4
2017-Feb-16 04:00S 49°44' E 158°59'0 0.0 1004.8 10.4
2017-Feb-16 03:00S 49°44' E 158°59'4 0.9 1004.1 10.3
2017-Feb-15 22:00S 49°46' E 158°52'1 0.5 1001.5 10.2
2017-Feb-15 20:00S 49°45' E 158°51'0 0.0 1000.8 10.1
2017-Feb-15 19:00S 49°45' E 158°51'0 0.4 1000.9 10.2
2017-Feb-15 18:00S 49°45' E 158°50'3 1.1 1002.1 10.2
2017-Feb-15 15:00S 49°44' E 158°46'0 0.0 1005.9 10.3
2017-Feb-15 14:00S 49°44' E 158°46'1 0.5 1006.5 10.3
2017-Feb-15 12:00S 49°44' E 158°44'1 0.7 1007.9 10.3
2017-Feb-15 11:00S 49°43' E 158°44'1 1.2 1008.6 10.3
2017-Feb-15 10:00S 49°43' E 158°42'0 0.2 1009.0 10.4
2017-Feb-15 08:00S 49°43' E 158°41'0 0.0 1008.8 10.4
2017-Feb-15 07:00S 49°43' E 158°41'0 0.0 1009.2 10.4
2017-Feb-15 06:00S 49°43' E 158°41'1 0.8 1009.5 10.4
2017-Feb-15 05:00S 49°43' E 158°40'1 1.0 1009.7 10.4
2017-Feb-15 04:00S 49°44' E 158°39'1 0.8 1009.5 10.4
2017-Feb-15 03:00S 49°44' E 158°38'2 0.5 1009.5 10.4
2017-Feb-14 23:00S 49°43' E 158°35'1 0.8 1009.1 10.3
2017-Feb-14 22:00S 49°43' E 158°34'0 0.0 1008.8 10.2
2017-Feb-14 21:00S 49°43' E 158°34'0 0.4 1008.1 10.2
2017-Feb-14 20:00S 49°43' E 158°33'1 1.0 1007.1 10.2
2017-Feb-14 19:00S 49°44' E 158°32'0 0.0 1006.1 10.2
2017-Feb-14 18:00S 49°44' E 158°32'0 0.0 1005.5 10.2
2017-Feb-14 16:00S 49°44' E 158°32'0 0.4 1004.5 10.2
2017-Feb-14 15:00S 49°44' E 158°31'0 0.0 1004.0 10.2
2017-Feb-14 14:00S 49°44' E 158°31'2 1.7 1003.7 10.2
2017-Feb-14 13:00S 49°45' E 158°29'0 0.0 1003.3 10.2
2017-Feb-14 12:00S 49°45' E 158°29'1 1.0 1002.9 10.2
2017-Feb-14 11:00S 49°46' E 158°28'1 0.6 1002.4 10.2
2017-Feb-14 09:00S 49°46' E 158°26'1 0.8 1001.2 10.3
2017-Feb-14 08:00S 49°46' E 158°25'1 1.3 1000.8 10.3
2017-Feb-14 07:00S 49°45' E 158°23'0 0.0 1000.2 10.3
2017-Feb-14 06:00S 49°45' E 158°23'0 0.0 999.9 10.3
2017-Feb-14 05:00S 49°45' E 158°23'0 0.0 999.6 10.3
2017-Feb-14 04:00S 49°45' E 158°23'   999.0 10.3

Dump ship's entire track history